Time;durP1;ratioP1;P1;durP2;ratioP2;P2;SDS_P1;SDS_P2;PMS_P1;PMS_P2;Temp;Humidity;BMP_temperature;BMP_pressure;BME280_temperature;BME280_humidity;BME280_pressure;Samples;Min_cycle;Max_cycle;Signal;HPM_P1;HPM_P2
2023/12/29 00:02:23;;;;;;;8.63;1.60;;;16.70;81.20;;;;;;4185847;28;20519;-50
2023/12/29 00:05:05;;;;;;;9.07;1.67;;;16.70;81.10;;;;;;4187085;28;20076;-49
2023/12/29 00:07:46;;;;;;;8.25;1.85;;;16.70;81.20;;;;;;4187112;28;20070;-50
2023/12/29 00:10:27;;;;;;;9.45;2.08;;;16.70;80.90;;;;;;4187176;28;20400;-52
2023/12/29 00:13:08;;;;;;;7.53;2.00;;;16.70;81.10;;;;;;4170792;28;20090;-53
2023/12/29 00:15:52;;;;;;;6.50;1.83;;;16.70;81.80;;;;;;4170114;28;20134;-50
2023/12/29 00:18:34;;;;;;;8.07;1.63;;;16.70;81.10;;;;;;4175468;28;20174;-52
2023/12/29 00:21:18;;;;;;;8.05;1.85;;;16.70;81.20;;;;;;4186200;28;20055;-53
2023/12/29 00:24:00;;;;;;;6.85;1.60;;;16.80;80.80;;;;;;4179631;28;20051;-52
2023/12/29 00:26:41;;;;;;;8.30;1.80;;;16.80;80.70;;;;;;4186186;28;20131;-45
2023/12/29 00:29:22;;;;;;;12.65;2.85;;;16.80;80.70;;;;;;4185777;28;20052;-46
2023/12/29 00:32:04;;;;;;;9.00;2.53;;;16.90;80.60;;;;;;4172565;28;20507;-48
2023/12/29 00:34:47;;;;;;;10.15;2.00;;;16.90;80.50;;;;;;4186698;28;20055;-44
2023/12/29 00:37:28;;;;;;;4.38;1.10;;;17.00;80.40;;;;;;4187236;28;20081;-45
2023/12/29 00:40:10;;;;;;;7.50;1.77;;;16.90;80.20;;;;;;4185664;28;20510;-48
2023/12/29 00:42:51;;;;;;;12.57;2.55;;;17.00;80.20;;;;;;4186836;28;20060;-46
2023/12/29 00:45:35;;;;;;;7.45;2.03;;;16.90;80.10;;;;;;4185667;28;20074;-46
2023/12/29 00:48:17;;;;;;;7.20;2.35;;;16.90;80.30;;;;;;4169321;28;20068;-48
2023/12/29 00:51:02;;;;;;;5.97;1.73;;;16.80;80.40;;;;;;4161333;28;20400;-47
2023/12/29 00:53:44;;;;;;;8.38;1.67;;;16.70;80.60;;;;;;4166896;28;20060;-44
2023/12/29 00:56:25;;;;;;;6.78;1.90;;;16.70;81.60;;;;;;4175082;28;20051;-48
2023/12/29 00:59:06;;;;;;;10.18;2.13;;;16.80;80.80;;;;;;4179927;28;20060;-47
2023/12/29 01:01:47;;;;;;;6.07;1.98;;;16.80;80.60;;;;;;4175676;28;20055;-44
2023/12/29 01:04:28;;;;;;;10.02;2.25;;;16.90;80.70;;;;;;4168471;28;20048;-51
2023/12/29 01:07:11;;;;;;;10.00;2.33;;;16.90;80.10;;;;;;4187759;28;20051;-49
2023/12/29 01:09:52;;;;;;;8.82;2.03;;;17.00;79.90;;;;;;4175835;28;20059;-44
2023/12/29 01:12:33;;;;;;;5.68;1.30;;;17.00;79.70;;;;;;4188973;28;20101;-44
2023/12/29 01:15:14;;;;;;;6.63;1.52;;;17.00;79.70;;;;;;4192095;28;20059;-44
2023/12/29 01:17:55;;;;;;;5.38;1.65;;;17.00;79.80;;;;;;4175854;28;20057;-44
2023/12/29 01:20:36;;;;;;;7.53;1.83;;;17.00;80.00;;;;;;4188874;28;20482;-46
2023/12/29 01:23:19;;;;;;;7.38;1.52;;;16.90;80.10;;;;;;4202205;28;20063;-44
2023/12/29 01:26:00;;;;;;;5.18;1.50;;;16.80;80.40;;;;;;4191852;28;20079;-45
2023/12/29 01:28:41;;;;;;;3.78;0.90;;;16.80;80.80;;;;;;4191641;28;20129;-46
2023/12/29 01:31:22;;;;;;;7.93;2.15;;;16.80;80.80;;;;;;4190491;28;20073;-49
2023/12/29 01:34:04;;;;;;;5.72;1.73;;;16.80;80.90;;;;;;4191918;28;20185;-45
2023/12/29 01:36:46;;;;;;;6.05;1.90;;;16.80;80.80;;;;;;4177420;28;20404;-47
2023/12/29 01:39:28;;;;;;;11.32;2.67;;;16.80;80.80;;;;;;4182251;28;20052;-48
2023/12/29 01:42:11;;;;;;;6.00;1.45;;;16.70;80.80;;;;;;4174213;28;20499;-46
2023/12/29 01:44:54;;;;;;;12.27;2.28;;;16.70;80.90;;;;;;4160414;28;20413;-45
2023/12/29 01:47:34;;;;;;;7.57;2.40;;;16.70;81.20;;;;;;4164948;28;20051;-48
2023/12/29 01:50:16;;;;;;;5.30;2.00;;;16.60;81.20;;;;;;4175482;28;20048;-45
2023/12/29 01:53:02;;;;;;;7.03;2.40;;;16.60;81.40;;;;;;4175303;28;20072;-44
2023/12/29 01:55:44;;;;;;;12.27;2.40;;;16.60;81.60;;;;;;4160548;28;20067;-48
2023/12/29 01:58:25;;;;;;;6.43;1.90;;;16.70;81.50;;;;;;4174551;28;20064;-48
2023/12/29 02:01:08;;;;;;;7.22;1.70;;;16.70;81.30;;;;;;4202604;28;20063;-45
2023/12/29 02:03:50;;;;;;;1.20;0.63;;;16.70;81.20;;;;;;4190663;28;20399;-46
2023/12/29 02:06:32;;;;;;;3.90;0.93;;;16.70;81.30;;;;;;4184144;28;20059;-46
2023/12/29 02:09:13;;;;;;;2.20;0.80;;;16.70;81.00;;;;;;4170362;28;20428;-44
2023/12/29 02:11:55;;;;;;;2.00;0.70;;;16.60;80.90;;;;;;4162943;28;20145;-46
2023/12/29 02:14:37;;;;;;;4.07;0.50;;;16.60;80.90;;;;;;4174067;28;20107;-49
2023/12/29 02:17:23;;;;;;;1.42;0.70;;;16.50;81.10;;;;;;4186913;28;20179;-46
2023/12/29 02:20:06;;;;;;;2.45;1.50;;;16.50;81.10;;;;;;4178544;28;20117;-45
2023/12/29 02:22:47;;;;;;;2.15;0.50;;;16.50;81.30;;;;;;4166095;28;20056;-45
2023/12/29 02:25:30;;;;;;;1.27;1.05;;;16.50;81.20;;;;;;4170389;28;20122;-47
2023/12/29 02:28:21;;;;;;;1.05;0.63;;;16.50;81.30;;;;;;4172796;28;20064;-44
2023/12/29 02:31:08;;;;;;;3.40;1.02;;;16.50;80.80;;;;;;4170532;28;20116;-46
2023/12/29 02:33:52;;;;;;;5.93;0.90;;;16.50;81.10;;;;;;4157021;28;20056;-47
2023/12/29 02:36:33;;;;;;;4.88;0.82;;;16.60;81.20;;;;;;4165695;28;20126;-48
2023/12/29 02:39:15;;;;;;;3.67;0.80;;;16.60;81.10;;;;;;4181902;28;20059;-49
2023/12/29 02:41:58;;;;;;;6.43;1.17;;;16.70;80.90;;;;;;4185861;28;20105;-49
2023/12/29 02:44:39;;;;;;;4.80;1.20;;;16.70;80.70;;;;;;4188740;28;20158;-44
2023/12/29 02:47:21;;;;;;;;;;;16.70;80.60;;;;;;4175442;28;20071;-46
2023/12/29 02:50:02;;;;;;;;;;;16.70;80.70;;;;;;4189493;28;19928;-47
2023/12/29 02:52:43;;;;;;;6.20;1.42;;;16.70;80.90;;;;;;4186190;28;20333;-51
2023/12/29 02:55:24;;;;;;;6.65;1.35;;;16.60;81.10;;;;;;4171764;28;20064;-51
2023/12/29 02:58:07;;;;;;;7.80;1.95;;;16.50;81.10;;;;;;4188923;28;20055;-53
2023/12/29 03:00:48;;;;;;;6.30;1.45;;;16.50;81.20;;;;;;4188101;28;20054;-52
2023/12/29 03:03:29;;;;;;;13.85;2.92;;;16.40;81.50;;;;;;4187546;28;20104;-53
2023/12/29 03:06:10;;;;;;;6.95;1.90;;;16.40;81.80;;;;;;4173203;28;20051;-51
2023/12/29 03:08:52;;;;;;;7.53;1.83;;;16.30;82.00;;;;;;4187304;28;20402;-52
2023/12/29 03:11:35;;;;;;;6.82;1.80;;;16.40;82.00;;;;;;4188272;28;20067;-52
2023/12/29 03:14:17;;;;;;;7.45;2.20;;;16.60;81.70;;;;;;4188238;28;20403;-50
2023/12/29 03:16:59;;;;;;;11.75;2.10;;;16.70;81.90;;;;;;4186732;28;20081;-50
2023/12/29 03:19:40;;;;;;;;;;;16.90;80.40;;;;;;4184065;28;20068;-50
2023/12/29 03:22:21;;;;;;;10.65;2.20;;;17.00;79.80;;;;;;4171887;28;19947;-50
2023/12/29 03:25:02;;;;;;;6.78;2.08;;;17.10;79.40;;;;;;4174635;28;20048;-50
2023/12/29 03:27:43;;;;;;;;;;;17.20;78.90;;;;;;4188812;28;20055;-49
2023/12/29 03:30:25;;;;;;;10.70;2.70;;;17.30;78.70;;;;;;4172250;28;19931;-45
2023/12/29 03:33:06;;;;;;;9.32;2.03;;;17.30;78.60;;;;;;4188153;28;20052;-45
2023/12/29 03:35:48;;;;;;;8.50;2.47;;;17.20;78.60;;;;;;4187463;28;20195;-44
2023/12/29 03:38:29;;;;;;;15.15;3.65;;;17.30;78.40;;;;;;4170295;28;20633;-45
2023/12/29 03:41:09;;;;;;;11.77;3.37;;;17.30;78.50;;;;;;4171034;28;20504;-43
2023/12/29 03:43:50;;;;;;;10.25;2.30;;;17.30;78.60;;;;;;4156268;28;20048;-51
2023/12/29 03:46:33;;;;;;;9.70;2.57;;;17.20;78.70;;;;;;4156137;28;20044;-48
2023/12/29 03:49:14;;;;;;;12.80;2.70;;;17.30;78.80;;;;;;4171091;28;20052;-44
2023/12/29 03:51:55;;;;;;;14.23;2.92;;;17.30;78.70;;;;;;4171389;28;20102;-50
2023/12/29 03:54:36;;;;;;;12.63;2.85;;;17.30;78.40;;;;;;4171537;28;20199;-48
2023/12/29 03:57:17;;;;;;;14.82;2.83;;;17.30;78.40;;;;;;4174651;28;20178;-45
2023/12/29 03:59:58;;;;;;;14.65;3.25;;;17.40;78.20;;;;;;4187460;28;20054;-47
2023/12/29 04:02:40;;;;;;;13.05;1.80;;;17.40;78.00;;;;;;4186613;28;20055;-51
2023/12/29 04:05:21;;;;;;;14.10;2.70;;;17.40;78.20;;;;;;4170118;28;20063;-48
2023/12/29 04:08:02;;;;;;;16.60;3.80;;;17.30;78.30;;;;;;4171483;28;20052;-45
2023/12/29 04:10:44;;;;;;;11.48;2.33;;;17.30;78.40;;;;;;4161640;28;20056;-45
2023/12/29 04:13:24;;;;;;;16.88;3.65;;;17.30;79.10;;;;;;4160355;28;20056;-47
2023/12/29 04:16:06;;;;;;;18.65;2.92;;;17.40;78.30;;;;;;4187850;28;20079;-48
2023/12/29 04:18:48;;;;;;;14.05;3.08;;;17.30;78.20;;;;;;4194893;28;20174;-50
2023/12/29 04:21:29;;;;;;;19.25;3.72;;;17.30;78.40;;;;;;4170031;28;20055;-48
2023/12/29 04:24:10;;;;;;;11.52;3.15;;;17.20;79.50;;;;;;4174704;28;20100;-49
2023/12/29 04:26:51;;;;;;;16.70;3.38;;;17.20;78.80;;;;;;4186689;28;20055;-50
2023/12/29 04:29:32;;;;;;;19.15;4.22;;;17.10;79.10;;;;;;4185513;28;20059;-50
2023/12/29 04:32:15;;;;;;;19.85;3.33;;;17.00;79.40;;;;;;4169212;28;20052;-47
2023/12/29 04:34:59;;;;;;;13.57;2.88;;;17.00;79.40;;;;;;4165943;28;20056;-49
2023/12/29 04:37:40;;;;;;;16.88;3.50;;;17.00;79.40;;;;;;4153256;28;20065;-49
2023/12/29 04:40:21;;;;;;;18.52;3.47;;;16.90;79.40;;;;;;4177173;28;20083;-45
2023/12/29 04:43:02;;;;;;;11.93;3.38;;;16.90;79.20;;;;;;4169120;28;20056;-46
2023/12/29 04:45:43;;;;;;;15.32;2.90;;;17.00;79.80;;;;;;4155055;28;20526;-44
2023/12/29 04:48:23;;;;;;;20.27;3.28;;;17.00;79.50;;;;;;4178697;28;20182;-46
2023/12/29 04:51:06;;;;;;;19.15;2.90;;;17.10;79.10;;;;;;4168875;28;20056;-49
2023/12/29 04:53:47;;;;;;;18.33;4.18;;;17.10;79.00;;;;;;4154114;28;20115;-49
2023/12/29 04:56:28;;;;;;;;;;;17.10;79.00;;;;;;4171188;28;20056;-51
2023/12/29 04:59:10;;;;;;;15.43;3.47;;;17.00;79.40;;;;;;4175456;28;19928;-49
2023/12/29 05:01:51;;;;;;;8.50;2.30;;;17.10;79.40;;;;;;4187004;28;20117;-46
2023/12/29 05:04:32;;;;;;;20.13;4.95;;;17.10;79.00;;;;;;4170139;28;20079;-46
2023/12/29 05:07:14;;;;;;;12.80;3.08;;;17.20;78.80;;;;;;4170239;28;20182;-49
2023/12/29 05:09:55;;;;;;;12.85;3.38;;;17.20;78.60;;;;;;4183858;28;20134;-46
2023/12/29 05:12:36;;;;;;;14.63;3.38;;;17.30;78.30;;;;;;4186822;28;20055;-48
2023/12/29 05:15:17;;;;;;;16.45;3.00;;;17.30;79.00;;;;;;4186856;28;20067;-49
2023/12/29 05:17:58;;;;;;;16.25;3.35;;;17.30;77.90;;;;;;4185496;28;20502;-47
2023/12/29 05:20:40;;;;;;;18.73;3.42;;;17.30;78.10;;;;;;4169774;28;20048;-45
2023/12/29 05:23:22;;;;;;;17.08;3.17;;;17.30;78.10;;;;;;4159637;28;20077;-46
2023/12/29 05:26:03;;;;;;;14.10;3.25;;;17.40;77.90;;;;;;4154254;28;20075;-45
2023/12/29 05:28:44;;;;;;;16.52;2.97;;;17.50;77.50;;;;;;4170309;28;20047;-47
2023/12/29 05:31:25;;;;;;;10.63;3.00;;;17.60;77.10;;;;;;4156724;28;20573;-46
2023/12/29 05:34:07;;;;;;;11.20;3.13;;;17.60;76.90;;;;;;4171269;28;20060;-48
2023/12/29 05:36:48;;;;;;;;;;;17.50;76.90;;;;;;4173637;28;20056;-48
2023/12/29 05:39:32;;;;;;;14.48;3.47;;;17.50;77.10;;;;;;4187853;28;20017;-47
2023/12/29 05:42:13;;;;;;;15.90;2.80;;;17.40;77.30;;;;;;4185843;28;20120;-46
2023/12/29 05:44:54;;;;;;;14.63;2.63;;;17.40;77.80;;;;;;4169129;28;20071;-47
2023/12/29 05:47:35;;;;;;;18.08;4.13;;;17.30;77.90;;;;;;4172138;28;20126;-47
2023/12/29 05:50:16;;;;;;;13.10;3.30;;;17.30;77.80;;;;;;4172825;28;20052;-46
2023/12/29 05:52:57;;;;;;;17.63;3.55;;;17.40;77.50;;;;;;4157920;28;20079;-48
2023/12/29 05:55:40;;;;;;;17.02;3.95;;;17.30;77.40;;;;;;4158075;28;20460;-47
2023/12/29 05:58:20;;;;;;;20.65;3.88;;;17.30;77.70;;;;;;4172688;28;20056;-51
2023/12/29 06:01:01;;;;;;;20.70;3.03;;;17.30;77.80;;;;;;4170850;28;20043;-49
2023/12/29 06:03:43;;;;;;;16.15;4.30;;;17.30;77.60;;;;;;4176518;28;20055;-48
2023/12/29 06:06:24;;;;;;;14.02;3.10;;;17.40;77.60;;;;;;4189596;28;20060;-49
2023/12/29 06:09:05;;;;;;;12.07;2.80;;;17.30;77.40;;;;;;4189254;28;20399;-45
2023/12/29 06:11:47;;;;;;;13.35;3.85;;;17.30;77.50;;;;;;4189370;28;20051;-50
2023/12/29 06:14:28;;;;;;;12.18;2.67;;;17.20;77.70;;;;;;4188977;28;20552;-46
2023/12/29 06:17:10;;;;;;;16.20;3.97;;;17.20;78.00;;;;;;4178254;28;20385;-46
2023/12/29 06:19:51;;;;;;;12.05;2.50;;;17.10;78.10;;;;;;4185098;28;20063;-48
2023/12/29 06:22:32;;;;;;;8.13;2.65;;;17.00;78.30;;;;;;4188928;28;20407;-47
2023/12/29 06:25:14;;;;;;;15.95;3.58;;;16.90;78.90;;;;;;4188915;28;20055;-46
2023/12/29 06:27:56;;;;;;;16.13;3.55;;;16.90;79.00;;;;;;4189308;28;20099;-45
2023/12/29 06:30:38;;;;;;;15.98;2.95;;;17.00;78.80;;;;;;4188444;28;20193;-44
2023/12/29 06:33:20;;;;;;;15.02;2.72;;;17.10;78.50;;;;;;4188891;28;20060;-45
2023/12/29 06:36:02;;;;;;;18.52;2.90;;;17.10;78.30;;;;;;4189182;28;20055;-45
2023/12/29 06:38:48;;;;;;;8.90;3.28;;;17.20;78.50;;;;;;4188760;28;20074;-44
2023/12/29 06:41:29;;;;;;;11.73;2.38;;;17.20;78.10;;;;;;4172565;28;20098;-46
2023/12/29 06:44:11;;;;;;;20.95;3.70;;;17.20;77.80;;;;;;4175984;28;20147;-45
2023/12/29 06:46:53;;;;;;;18.13;3.25;;;17.20;77.40;;;;;;4182309;28;20133;-47
2023/12/29 06:49:34;;;;;;;14.30;3.17;;;17.20;77.80;;;;;;4171069;28;20098;-47
2023/12/29 06:52:16;;;;;;;10.73;2.78;;;17.20;78.00;;;;;;4180849;28;20059;-46
2023/12/29 06:54:56;;;;;;;13.05;2.90;;;17.20;78.10;;;;;;4188930;28;20051;-47
2023/12/29 06:57:38;;;;;;;10.45;2.67;;;17.10;78.10;;;;;;4186829;28;20101;-44
2023/12/29 07:00:21;;;;;;;17.10;3.42;;;17.00;78.20;;;;;;4187491;28;20059;-45
2023/12/29 07:03:02;;;;;;;17.75;3.20;;;17.00;78.20;;;;;;4179836;28;20102;-47
2023/12/29 07:05:43;;;;;;;17.58;2.70;;;16.90;78.50;;;;;;4181689;28;20051;-48
2023/12/29 07:08:24;;;;;;;14.20;2.35;;;16.90;78.90;;;;;;4181475;28;20134;-48
2023/12/29 07:11:05;;;;;;;16.50;3.28;;;16.90;79.20;;;;;;4169462;28;20061;-45
2023/12/29 07:13:46;;;;;;;16.58;3.75;;;17.00;79.10;;;;;;4182750;28;20051;-50
2023/12/29 07:16:28;;;;;;;17.80;3.15;;;17.00;78.70;;;;;;4171257;28;20084;-47
2023/12/29 07:19:10;;;;;;;14.77;2.58;;;17.10;78.40;;;;;;4171160;28;20048;-48
2023/12/29 07:21:51;;;;;;;11.60;2.63;;;17.20;77.60;;;;;;4171049;28;20084;-48
2023/12/29 07:24:32;;;;;;;13.60;3.05;;;17.20;77.20;;;;;;4169919;28;20087;-45
2023/12/29 07:27:14;;;;;;;17.98;4.30;;;17.10;77.50;;;;;;4170983;28;20186;-46
2023/12/29 07:29:55;;;;;;;14.00;3.33;;;17.10;77.60;;;;;;4171080;28;20060;-48
2023/12/29 07:32:37;;;;;;;15.20;3.10;;;17.00;77.60;;;;;;4185706;28;20507;-48
2023/12/29 07:35:19;;;;;;;16.30;3.20;;;16.90;78.00;;;;;;4186992;28;20187;-44
2023/12/29 07:38:00;;;;;;;12.02;3.20;;;16.80;78.30;;;;;;4187759;28;20193;-44
2023/12/29 07:40:41;;;;;;;19.67;4.43;;;16.80;78.40;;;;;;4186737;28;20051;-46
2023/12/29 07:43:23;;;;;;;14.77;4.07;;;16.80;78.40;;;;;;4171165;28;20052;-47
2023/12/29 07:46:04;;;;;;;17.73;3.60;;;16.80;78.50;;;;;;4174800;28;20063;-46
2023/12/29 07:48:46;;;;;;;15.07;3.65;;;16.80;78.40;;;;;;4185644;28;20055;-45
2023/12/29 07:51:27;;;;;;;11.93;3.30;;;16.90;78.20;;;;;;4182026;28;20047;-48
2023/12/29 07:54:08;;;;;;;15.95;3.00;;;16.90;77.80;;;;;;4168804;28;20060;-47
2023/12/29 07:56:50;;;;;;;15.63;2.38;;;17.00;77.60;;;;;;4186785;28;20059;-46
2023/12/29 07:59:31;;;;;;;17.92;3.38;;;17.10;78.20;;;;;;4171593;28;20052;-44
2023/12/29 08:02:13;;;;;;;14.93;3.70;;;17.10;77.80;;;;;;4180144;28;20055;-43
2023/12/29 08:04:56;;;;;;;14.90;2.72;;;17.10;78.70;;;;;;4176996;28;20055;-46
2023/12/29 08:07:37;;;;;;;15.50;3.63;;;17.10;77.90;;;;;;4178970;28;20091;-45
2023/12/29 08:10:18;;;;;;;;;;;17.10;77.90;;;;;;4168514;28;20202;-46
2023/12/29 08:12:59;;;;;;;21.20;3.83;;;17.10;78.20;;;;;;4167805;28;20395;-42
2023/12/29 08:15:40;;;;;;;16.27;3.67;;;17.10;79.40;;;;;;4165596;28;20079;-48
2023/12/29 08:18:21;;;;;;;18.70;3.05;;;17.10;79.00;;;;;;4169865;28;20595;-55
2023/12/29 08:21:04;;;;;;;14.95;4.05;;;17.10;79.40;;;;;;4171712;28;20098;-49
2023/12/29 08:23:45;;;;;;;27.50;4.53;;;17.20;79.10;;;;;;4165400;28;20055;-40
2023/12/29 08:26:26;;;;;;;22.20;3.80;;;17.20;79.00;;;;;;4175595;28;20059;-50
2023/12/29 08:29:07;;;;;;;11.48;3.15;;;17.30;78.80;;;;;;4167123;28;20067;-58
2023/12/29 08:31:48;;;;;;;22.52;3.35;;;17.30;78.50;;;;;;4176854;28;20056;-56
2023/12/29 08:34:29;;;;;;;10.75;2.30;;;17.30;78.70;;;;;;4172376;28;20983;-51
2023/12/29 08:37:11;;;;;;;19.33;3.45;;;17.30;78.60;;;;;;4171850;28;20064;-49
2023/12/29 08:39:53;;;;;;;11.60;2.65;;;17.20;78.50;;;;;;4168531;28;20074;-45
2023/12/29 08:42:34;;;;;;;14.93;3.00;;;17.20;78.60;;;;;;4167490;28;20079;-49
2023/12/29 08:45:15;;;;;;;13.77;3.78;;;17.20;78.30;;;;;;4177540;28;20098;-53
2023/12/29 08:47:56;;;;;;;15.10;3.03;;;17.20;78.30;;;;;;4170347;28;20059;-51
2023/12/29 08:50:38;;;;;;;13.10;2.97;;;17.20;78.50;;;;;;4178849;28;20047;-47
2023/12/29 08:53:20;;;;;;;20.10;3.95;;;17.10;78.60;;;;;;4182940;28;20063;-49
2023/12/29 08:56:01;;;;;;;12.85;2.92;;;17.10;78.30;;;;;;4168167;28;20114;-54
2023/12/29 08:58:42;;;;;;;15.60;3.30;;;17.10;78.10;;;;;;4175012;28;20431;-56
2023/12/29 09:01:23;;;;;;;;;;;17.10;78.80;;;;;;4180751;28;20392;-53
2023/12/29 09:04:05;;;;;;;14.47;4.77;;;17.10;78.80;;;;;;4168962;28;19959;-46
2023/12/29 09:06:46;;;;;;;13.20;3.58;;;17.10;78.80;;;;;;4167356;28;20685;-53
2023/12/29 09:09:28;;;;;;;13.32;2.58;;;17.10;78.50;;;;;;4171030;28;20056;-57
2023/12/29 09:12:09;;;;;;;21.10;4.18;;;17.10;78.10;;;;;;4183859;28;20523;-57
2023/12/29 09:14:50;;;;;;;20.77;4.35;;;17.10;78.30;;;;;;4184854;28;20055;-51
2023/12/29 09:17:32;;;;;;;23.20;4.55;;;17.10;78.40;;;;;;4177297;28;20064;-46
2023/12/29 09:20:14;;;;;;;16.40;3.45;;;17.00;78.70;;;;;;4182402;28;20121;-50
2023/12/29 09:22:56;;;;;;;14.90;3.58;;;16.90;80.10;;;;;;4170183;28;20056;-50
2023/12/29 09:25:38;;;;;;;12.55;3.25;;;16.90;79.50;;;;;;4173507;28;20060;-48
2023/12/29 09:28:19;;;;;;;14.15;3.47;;;17.00;79.30;;;;;;4184526;28;20058;-48
2023/12/29 09:31:01;;;;;;;12.88;2.50;;;17.00;79.10;;;;;;4172136;28;20052;-50
2023/12/29 09:33:42;;;;;;;15.98;2.97;;;17.00;79.10;;;;;;4177559;28;20079;-51
2023/12/29 09:36:24;;;;;;;17.77;4.32;;;16.90;79.00;;;;;;4185735;28;20147;-48
2023/12/29 09:39:05;;;;;;;15.15;3.15;;;16.90;79.00;;;;;;4187079;28;20112;-49
2023/12/29 09:41:49;;;;;;;15.40;3.53;;;16.80;78.70;;;;;;4187232;28;20051;-51
2023/12/29 09:44:32;;;;;;;8.60;2.95;;;16.80;78.50;;;;;;4173254;28;20080;-50
2023/12/29 09:47:16;;;;;;;14.48;3.28;;;16.80;78.90;;;;;;4180853;28;20051;-47
2023/12/29 09:49:57;;;;;;;16.25;3.72;;;16.70;79.30;;;;;;4177652;28;20717;-50
2023/12/29 09:52:39;;;;;;;16.73;3.40;;;16.70;80.10;;;;;;4171962;28;20189;-51
2023/12/29 09:55:21;;;;;;;14.05;2.88;;;16.70;79.50;;;;;;4175234;28;20194;-50
2023/12/29 09:58:05;;;;;;;10.20;2.63;;;16.60;79.70;;;;;;4177511;28;20846;-52
2023/12/29 10:00:50;;;;;;;18.42;2.92;;;16.50;79.70;;;;;;4184847;28;20064;-49
2023/12/29 10:03:31;;;;;;;16.77;4.70;;;16.50;80.80;;;;;;4174032;28;20388;-50
2023/12/29 10:06:17;;;;;;;15.20;3.63;;;16.40;80.10;;;;;;4169715;28;20067;-51
2023/12/29 10:09:00;;;;;;;18.38;3.95;;;16.40;80.30;;;;;;4179555;28;20055;-51
2023/12/29 10:11:43;;;;;;;16.58;3.08;;;16.30;80.60;;;;;;4182137;28;20055;-51
2023/12/29 10:14:30;;;;;;;17.48;3.20;;;16.20;80.90;;;;;;4186139;28;20067;-50
2023/12/29 10:17:23;;;;;;;15.20;3.88;;;16.30;82.50;;;;;;4184848;28;20059;-45
2023/12/29 10:20:11;;;;;;;15.25;3.30;;;16.40;81.90;;;;;;4184515;28;20063;-50
2023/12/29 10:23:04;;;;;;;15.48;3.03;;;16.40;81.80;;;;;;4167372;28;20056;-47
2023/12/29 10:25:46;;;;;;;16.00;3.45;;;16.50;81.10;;;;;;4168268;28;20117;-49
2023/12/29 10:28:27;;;;;;;17.35;3.53;;;16.50;80.60;;;;;;4173834;28;20499;-49
2023/12/29 10:31:14;;;;;;;17.65;4.22;;;16.40;81.30;;;;;;4172658;28;20052;-53
2023/12/29 10:34:18;;;;;;;14.70;2.55;;;16.40;80.60;;;;;;4179530;28;20055;-51
2023/12/29 10:37:01;;;;;;;11.40;2.95;;;16.40;80.50;;;;;;4169012;28;20408;-45
2023/12/29 10:39:56;;;;;;;13.73;2.95;;;16.40;81.00;;;;;;4182371;28;20067;-51
2023/12/29 10:42:52;;;;;;;9.18;2.60;;;16.40;80.60;;;;;;4179305;28;20093;-45
2023/12/29 10:45:34;;;;;;;11.50;2.38;;;16.40;80.80;;;;;;4174818;28;20400;-43
2023/12/29 10:48:24;;;;;;;13.00;2.55;;;16.50;81.80;;;;;;4171329;28;20070;-48
2023/12/29 10:51:05;;;;;;;11.73;2.65;;;16.60;81.90;;;;;;4169218;28;20056;-46
2023/12/29 10:53:56;;;;;;;14.10;2.42;;;16.70;81.00;;;;;;4173708;28;20875;-44
2023/12/29 10:56:37;;;;;;;10.63;3.23;;;16.80;80.10;;;;;;4170204;28;20514;-43
2023/12/29 10:59:19;;;;;;;13.90;2.50;;;16.80;79.30;;;;;;4183926;28;20192;-44
2023/12/29 11:02:03;;;;;;;7.90;2.33;;;16.80;79.80;;;;;;4184814;28;20055;-47
2023/12/29 11:04:50;;;;;;;14.35;2.88;;;16.90;79.00;;;;;;4183170;28;20062;-46
2023/12/29 11:07:36;;;;;;;10.45;2.08;;;16.90;77.70;;;;;;4178007;28;20102;-46
2023/12/29 11:10:18;;;;;;;9.63;2.65;;;16.80;76.20;;;;;;4169093;28;20072;-44
2023/12/29 11:13:00;;;;;;;10.27;2.35;;;16.70;77.30;;;;;;4185710;28;20580;-43
2023/12/29 11:15:44;;;;;;;8.05;2.15;;;16.70;78.60;;;;;;4179233;28;20080;-43
2023/12/29 11:18:26;;;;;;;12.77;2.38;;;16.70;77.60;;;;;;4175461;28;20641;-43
2023/12/29 11:21:10;;;;;;;11.95;2.63;;;16.70;77.40;;;;;;4179817;28;20052;-43
2023/12/29 11:23:51;;;;;;;7.72;1.65;;;16.70;77.40;;;;;;4170443;28;20070;-44
2023/12/29 11:26:32;;;;;;;9.20;2.47;;;16.60;77.40;;;;;;4180055;28;20134;-44
2023/12/29 11:29:14;;;;;;;8.02;2.40;;;16.60;77.60;;;;;;4169098;28;20408;-46
2023/12/29 11:31:57;;;;;;;11.60;3.17;;;16.60;78.10;;;;;;4169013;28;20067;-45
2023/12/29 11:34:44;;;;;;;10.82;1.98;;;16.60;77.70;;;;;;4168392;28;20056;-48
2023/12/29 11:37:36;;;;;;;10.10;2.20;;;16.50;77.90;;;;;;4168332;28;20171;-43
2023/12/29 11:40:22;;;;;;;9.90;2.15;;;16.50;78.70;;;;;;4167293;28;20094;-45
2023/12/29 11:43:16;;;;;;;12.75;3.28;;;16.50;79.30;;;;;;4177432;28;20388;-38
2023/12/29 11:45:57;;;;;;;12.07;2.08;;;16.50;79.20;;;;;;4172335;28;20122;-39
2023/12/29 11:48:57;;;;;;;10.75;2.60;;;16.50;79.70;;;;;;4168621;28;20055;-38
2023/12/29 11:51:43;;;;;;;14.38;2.33;;;16.50;79.60;;;;;;4173540;28;20155;-38
2023/12/29 11:54:27;;;;;;;12.05;2.05;;;16.50;79.60;;;;;;4184610;28;20416;-37
2023/12/29 11:57:09;;;;;;;13.55;2.10;;;16.40;80.10;;;;;;4184622;28;20055;-38
2023/12/29 11:59:50;;;;;;;8.55;2.17;;;16.40;80.50;;;;;;4184918;28;20047;-37
2023/12/29 12:02:31;;;;;;;10.77;2.00;;;16.40;81.00;;;;;;4176365;28;20102;-37
2023/12/29 12:05:12;;;;;;;4.15;1.33;;;16.40;80.30;;;;;;4178289;28;20079;-37
2023/12/29 12:08:03;;;;;;;11.73;1.92;;;16.40;80.40;;;;;;4180956;28;20051;-38
2023/12/29 12:10:46;;;;;;;10.68;2.20;;;16.40;79.60;;;;;;4180649;28;20079;-50
2023/12/29 12:13:46;;;;;;;8.07;2.10;;;16.40;79.60;;;;;;4183676;28;20079;-50
2023/12/29 12:16:52;;;;;;;5.65;1.75;;;16.40;78.90;;;;;;4168058;28;20064;-49
2023/12/29 12:19:35;;;;;;;10.68;2.60;;;16.40;79.80;;;;;;4167396;28;20052;-48
2023/12/29 12:22:20;;;;;;;5.63;1.80;;;16.50;81.10;;;;;;4175403;28;20121;-48
2023/12/29 12:25:01;;;;;;;3.67;1.52;;;16.50;79.50;;;;;;4168332;28;20113;-48
2023/12/29 12:27:44;;;;;;;4.50;2.03;;;16.50;79.30;;;;;;4167831;28;20052;-51
2023/12/29 12:30:25;;;;;;;5.55;1.60;;;16.50;80.20;;;;;;4183898;28;20557;-52
2023/12/29 12:33:06;;;;;;;9.05;3.13;;;16.50;77.60;;;;;;4183008;28;20102;-51
2023/12/29 12:35:48;;;;;;;;;;;16.60;76.30;;;;;;4170478;28;20052;-49
2023/12/29 12:38:31;;;;;;;;;;;16.60;75.60;;;;;;4176575;28;19943;-48
2023/12/29 12:41:13;;;;;;;11.88;4.18;;;16.60;74.40;;;;;;4168201;28;19928;-50
2023/12/29 12:44:07;;;;;;;10.60;3.20;;;16.50;73.40;;;;;;4172497;28;20093;-49
2023/12/29 12:46:52;;;;;;;8.95;2.63;;;16.50;72.00;;;;;;4170790;28;20060;-51
2023/12/29 12:49:34;;;;;;;8.20;2.22;;;16.40;72.20;;;;;;4166131;28;20060;-52
2023/12/29 12:52:15;;;;;;;9.82;2.70;;;16.40;70.90;;;;;;4175326;28;20388;-51
2023/12/29 12:54:56;;;;;;;7.05;1.90;;;16.40;70.50;;;;;;4172925;28;20122;-52
2023/12/29 12:57:38;;;;;;;3.75;2.08;;;16.30;70.30;;;;;;4168306;28;20373;-48
2023/12/29 13:00:20;;;;;;;8.15;2.20;;;16.30;70.20;;;;;;4182750;28;20205;-52
2023/12/29 13:03:02;;;;;;;9.38;1.88;;;16.30;69.60;;;;;;4184086;28;20120;-51
2023/12/29 13:05:44;;;;;;;3.92;1.02;;;16.20;68.80;;;;;;4182721;28;20384;-50
2023/12/29 13:08:26;;;;;;;8.30;1.85;;;16.10;68.80;;;;;;4176721;28;20095;-49
2023/12/29 13:11:12;;;;;;;4.07;1.80;;;16.10;68.60;;;;;;4168146;28;20056;-52
2023/12/29 13:13:56;;;;;;;5.45;1.33;;;16.10;68.00;;;;;;4168974;28;20206;-51
2023/12/29 13:16:39;;;;;;;6.95;1.65;;;16.10;67.40;;;;;;4183670;28;20129;-47
2023/12/29 13:19:23;;;;;;;3.75;1.30;;;16.10;67.20;;;;;;4183768;28;20403;-52
2023/12/29 13:22:08;;;;;;;3.38;1.88;;;16.00;67.20;;;;;;4181096;28;20146;-52
2023/12/29 13:24:49;;;;;;;3.65;1.30;;;16.00;67.80;;;;;;4175474;28;20055;-49
2023/12/29 13:27:30;;;;;;;3.22;1.20;;;16.00;66.50;;;;;;4179710;28;20095;-49
2023/12/29 13:30:14;;;;;;;6.25;2.00;;;15.90;66.50;;;;;;4176175;28;20519;-49
2023/12/29 13:32:58;;;;;;;5.00;1.33;;;16.00;66.20;;;;;;4180920;28;20047;-51
2023/12/29 13:35:47;;;;;;;5.85;1.67;;;15.90;65.90;;;;;;4167610;28;20196;-49
2023/12/29 13:38:37;;;;;;;5.82;1.60;;;15.90;65.80;;;;;;4168614;28;21205;-46
2023/12/29 13:41:20;;;;;;;11.40;1.80;;;15.90;66.70;;;;;;4164975;28;20083;-49
2023/12/29 13:44:02;;;;;;;4.88;1.23;;;15.80;65.70;;;;;;4167102;28;20106;-49
2023/12/29 13:46:44;;;;;;;5.95;0.75;;;15.80;66.10;;;;;;4174047;28;20121;-49
2023/12/29 13:49:26;;;;;;;8.63;2.03;;;15.80;66.30;;;;;;4174204;28;20055;-37
2023/12/29 13:52:07;;;;;;;6.72;1.77;;;15.80;66.10;;;;;;4167196;28;20086;-50
2023/12/29 13:54:50;;;;;;;12.00;2.53;;;15.70;66.10;;;;;;4155061;28;20126;-49
2023/12/29 13:57:32;;;;;;;8.05;2.00;;;15.70;65.90;;;;;;4164980;28;20060;-50
2023/12/29 14:00:21;;;;;;;11.70;1.90;;;15.70;65.90;;;;;;4183605;28;20109;-48
2023/12/29 14:03:10;;;;;;;6.18;1.55;;;15.70;65.80;;;;;;4176414;28;20102;-50